Time;durP1;ratioP1;P1;durP2;ratioP2;P2;SDS_P1;SDS_P2;PMS_P1;PMS_P2;Temp;Humidity;BMP_temperature;BMP_pressure;BME280_temperature;BME280_humidity;BME280_pressure;Samples;Min_cycle;Max_cycle;Signal;HPM_P1;HPM_P2
2022/02/27 00:00:00;;;;;;;5.63;5.10;;;-1.30;99.90;;;;;;4896142;29;20135;-84
2022/02/27 00:02:27;;;;;;;8.17;7.43;;;-1.30;99.90;;;;;;4897844;29;20045;-84
2022/02/27 00:04:54;;;;;;;8.93;6.73;;;-1.40;99.90;;;;;;4888121;29;20139;-83
2022/02/27 00:07:29;;;;;;;9.13;7.87;;;-1.40;99.90;;;;;;4901368;29;20056;-84
2022/02/27 00:09:58;;;;;;;14.53;10.07;;;-1.40;99.90;;;;;;4898561;29;20436;-83
2022/02/27 00:12:26;;;;;;;7.43;6.07;;;-1.40;99.90;;;;;;4884344;29;20056;-84
2022/02/27 00:14:53;;;;;;;9.77;6.80;;;-1.50;99.90;;;;;;4886776;29;20049;-83
2022/02/27 00:17:22;;;;;;;7.63;5.20;;;-1.50;99.90;;;;;;4899237;29;20055;-83
2022/02/27 00:19:49;;;;;;;6.93;6.27;;;-1.40;99.90;;;;;;4898120;29;20049;-85
2022/02/27 00:22:19;;;;;;;8.90;6.47;;;-1.40;99.90;;;;;;4899858;29;20474;-86
2022/02/27 00:24:46;;;;;;;12.93;7.77;;;-1.40;99.90;;;;;;4898959;29;20064;-84
2022/02/27 00:27:25;;;;;;;11.60;9.10;;;-1.50;99.90;;;;;;4903705;29;20049;-86
2022/02/27 00:29:56;;;;;;;8.20;7.43;;;-1.70;99.90;;;;;;4903740;29;20136;-85
2022/02/27 00:32:24;;;;;;;10.13;8.00;;;-1.70;99.90;;;;;;4903338;29;20052;-85
2022/02/27 00:34:51;;;;;;;13.90;9.77;;;-1.80;99.90;;;;;;4902504;29;20097;-85
2022/02/27 00:37:20;;;;;;;8.10;7.30;;;-1.90;99.90;;;;;;4902610;29;20052;-85
2022/02/27 00:39:47;;;;;;;12.87;7.40;;;-1.80;99.90;;;;;;4901963;29;20080;-84
2022/02/27 00:42:14;;;;;;;8.77;6.40;;;-1.80;99.90;;;;;;4902405;29;20147;-85
2022/02/27 00:44:46;;;;;;;8.10;7.30;;;-1.70;99.90;;;;;;4902184;29;20095;-85
2022/02/27 00:47:16;;;;;;;7.75;7.03;;;-1.70;99.90;;;;;;4903020;29;20056;-86
2022/02/27 00:49:43;;;;;;;9.90;8.90;;;-1.70;99.90;;;;;;4903766;29;20420;-85
2022/02/27 00:52:10;;;;;;;8.10;6.10;;;-1.90;99.90;;;;;;4903256;29;20040;-87
2022/02/27 00:54:37;;;;;;;11.03;9.73;;;-1.90;99.90;;;;;;4905670;29;20080;-86
2022/02/27 00:57:05;;;;;;;12.97;7.33;;;-1.90;99.90;;;;;;4903075;29;20132;-83
2022/02/27 00:59:32;;;;;;;7.90;7.23;;;-1.80;99.90;;;;;;4902718;29;20056;-84
2022/02/27 01:01:59;;;;;;;8.23;7.43;;;-1.80;99.90;;;;;;4901733;29;20124;-83
2022/02/27 01:04:28;;;;;;;100.50;61.73;;;-1.80;99.90;;;;;;4902068;29;20060;-84
2022/02/27 01:06:55;;;;;;;44.07;28.03;;;-1.80;99.90;;;;;;4903622;29;20115;-88
2022/02/27 01:09:22;;;;;;;11.20;10.20;;;-1.80;99.90;;;;;;4902503;29;20052;-84
2022/02/27 01:11:49;;;;;;;14.63;8.50;;;-1.80;99.90;;;;;;4902455;29;20053;-82
2022/02/27 01:14:16;;;;;;;11.77;7.97;;;-1.80;99.90;;;;;;4904104;29;20063;-83
2022/02/27 01:16:43;;;;;;;9.43;6.73;;;-1.90;99.90;;;;;;4904433;29;20053;-83
2022/02/27 01:19:10;;;;;;;13.20;7.90;;;-1.90;99.90;;;;;;4904513;29;20052;-84
2022/02/27 01:21:39;;;;;;;6.77;5.40;;;-2.00;99.90;;;;;;4905153;29;20135;-84
2022/02/27 01:24:07;;;;;;;9.67;4.57;;;-1.90;99.90;;;;;;4905748;29;20052;-83
2022/02/27 01:26:34;;;;;;;8.03;6.93;;;-1.90;99.90;;;;;;4902255;29;20063;-85
2022/02/27 01:29:02;;;;;;;8.20;6.60;;;-1.90;99.90;;;;;;4904524;29;20419;-84
2022/02/27 01:31:31;;;;;;;8.33;5.93;;;-1.80;99.90;;;;;;4907080;29;20049;-84
2022/02/27 01:33:58;;;;;;;9.90;5.67;;;-1.90;99.90;;;;;;4912880;29;20056;-84
2022/02/27 01:36:28;;;;;;;10.50;7.63;;;-1.90;99.90;;;;;;4916892;29;20048;-83
2022/02/27 01:38:56;;;;;;;8.50;6.53;;;-2.00;99.90;;;;;;4916061;29;20053;-83
2022/02/27 01:41:23;;;;;;;11.10;5.73;;;-2.20;99.90;;;;;;4917337;29;20126;-85
2022/02/27 01:43:50;;;;;;;6.93;6.27;;;-2.10;99.90;;;;;;4914057;29;20068;-84
2022/02/27 01:46:18;;;;;;;8.70;6.47;;;-2.10;99.90;;;;;;4917997;29;20139;-84
2022/02/27 01:48:47;;;;;;;9.70;6.13;;;-2.00;99.90;;;;;;4919271;29;20053;-84
2022/02/27 01:51:14;;;;;;;5.30;4.80;;;-1.90;99.90;;;;;;4920886;29;20052;-85
2022/02/27 01:53:41;;;;;;;7.00;4.90;;;-2.00;99.90;;;;;;4922933;29;20040;-85
2022/02/27 01:56:10;;;;;;;9.40;6.97;;;-2.00;99.90;;;;;;4920198;29;20068;-85
2022/02/27 01:58:37;;;;;;;14.13;7.47;;;-2.00;99.90;;;;;;4922673;29;20073;-85
2022/02/27 02:01:04;;;;;;;12.60;5.83;;;-1.90;99.90;;;;;;4922996;29;20116;-86
2022/02/27 02:03:34;;;;;;;8.00;5.73;;;-1.90;99.90;;;;;;4923439;29;20059;-84
2022/02/27 02:06:02;;;;;;;7.77;5.17;;;-1.90;99.90;;;;;;4923588;29;20040;-86
2022/02/27 02:08:34;;;;;;;8.90;4.43;;;-2.00;99.90;;;;;;4924098;29;20033;-85
2022/02/27 02:11:01;;;;;;;8.17;5.67;;;-1.90;99.90;;;;;;4923516;29;20059;-85
2022/02/27 02:13:30;;;;;;;12.03;5.87;;;-1.90;99.90;;;;;;4922859;29;20040;-84
2022/02/27 02:15:57;;;;;;;14.07;4.93;;;-1.90;99.90;;;;;;4922999;29;20165;-84
2022/02/27 02:18:24;;;;;;;8.87;5.40;;;-1.90;99.90;;;;;;4917744;29;20063;-84
2022/02/27 02:21:00;;;;;;;11.40;5.10;;;-1.90;99.90;;;;;;4914421;29;20056;-84
2022/02/27 02:23:27;;;;;;;8.43;5.50;;;-1.80;99.90;;;;;;4913607;29;20135;-85
2022/02/27 02:25:54;;;;;;;10.93;6.77;;;-1.80;99.90;;;;;;4920565;29;20108;-83
2022/02/27 02:28:21;;;;;;;9.93;5.20;;;-1.90;99.90;;;;;;4924025;29;20060;-82
2022/02/27 02:30:48;;;;;;;6.20;5.67;;;-1.90;99.90;;;;;;4923210;29;20057;-82
2022/02/27 02:33:15;;;;;;;10.80;5.80;;;-2.00;99.90;;;;;;4923380;29;20056;-83
2022/02/27 02:35:45;;;;;;;5.57;5.07;;;-2.10;99.90;;;;;;4923817;29;20046;-84
2022/02/27 02:38:13;;;;;;;10.10;4.63;;;-2.10;99.90;;;;;;4916705;29;20053;-84
2022/02/27 02:40:43;;;;;;;9.60;5.33;;;-2.10;99.90;;;;;;4915930;29;20052;-81
2022/02/27 02:43:13;;;;;;;6.40;5.47;;;-2.10;99.90;;;;;;4921765;29;20059;-82
2022/02/27 02:45:40;;;;;;;7.63;5.27;;;-2.10;99.90;;;;;;4922363;29;20060;-81
2022/02/27 02:48:07;;;;;;;11.40;6.97;;;-2.10;99.90;;;;;;4921526;29;20039;-82
2022/02/27 02:50:34;;;;;;;10.50;5.27;;;-2.10;99.90;;;;;;4922036;29;20037;-82
2022/02/27 02:53:01;;;;;;;6.90;6.10;;;-2.10;99.90;;;;;;4920746;29;20183;-82
2022/02/27 02:55:30;;;;;;;7.13;6.43;;;-2.10;99.90;;;;;;4922241;29;20096;-83
2022/02/27 02:57:57;;;;;;;6.60;5.67;;;-2.10;99.90;;;;;;4921640;29;20052;-83
2022/02/27 03:00:24;;;;;;;7.17;6.03;;;-2.10;99.90;;;;;;4921513;29;20040;-82
2022/02/27 03:02:51;;;;;;;7.87;5.87;;;-2.00;99.90;;;;;;4920847;29;20096;-83
2022/02/27 03:05:18;;;;;;;8.63;5.73;;;-2.00;99.90;;;;;;4907930;29;20056;-81
2022/02/27 03:07:45;;;;;;;5.80;5.30;;;-2.10;99.90;;;;;;4902497;29;20052;-82
2022/02/27 03:10:15;;;;;;;9.47;5.53;;;-2.10;99.90;;;;;;4902475;29;20056;-81
2022/02/27 03:12:43;;;;;;;8.40;4.47;;;-2.10;99.90;;;;;;4909032;29;20608;-81
2022/02/27 03:15:10;;;;;;;11.60;5.60;;;-2.20;99.90;;;;;;4901717;29;20049;-83
2022/02/27 03:17:37;;;;;;;8.33;6.77;;;-2.20;99.90;;;;;;4902338;29;20081;-80
2022/02/27 03:20:08;;;;;;;9.50;5.57;;;-2.30;99.90;;;;;;4904867;29;20064;-83
2022/02/27 03:22:35;;;;;;;20.23;9.15;;;-2.30;99.90;;;;;;4899158;29;20063;-80
2022/02/27 03:25:02;;;;;;;8.93;7.57;;;-2.30;99.90;;;;;;4899462;29;20100;-82
2022/02/27 03:27:32;;;;;;;11.67;8.27;;;-2.30;99.90;;;;;;4886243;29;20052;-81
2022/02/27 03:30:01;;;;;;;6.63;5.93;;;-2.40;99.90;;;;;;4887325;29;20060;-82
2022/02/27 03:32:27;;;;;;;7.33;5.40;;;-2.40;99.90;;;;;;4889330;29;20084;-81
2022/02/27 03:34:57;;;;;;;5.87;5.33;;;-2.40;99.90;;;;;;4897616;29;20091;-82
2022/02/27 03:37:24;;;;;;;5.97;4.97;;;-2.40;99.90;;;;;;4897754;29;20048;-82
2022/02/27 03:39:51;;;;;;;7.03;6.40;;;-2.30;99.90;;;;;;4888507;29;20143;-83
2022/02/27 03:42:18;;;;;;;5.63;4.97;;;-2.20;99.90;;;;;;4883927;29;20113;-83
2022/02/27 03:44:46;;;;;;;12.03;4.90;;;-2.20;99.90;;;;;;4889529;29;20063;-82
2022/02/27 03:47:14;;;;;;;4.83;4.43;;;-2.20;99.90;;;;;;4894997;29;20052;-84
2022/02/27 03:49:41;;;;;;;9.13;7.40;;;-2.30;99.90;;;;;;4899714;29;20068;-83
2022/02/27 03:52:08;;;;;;;7.63;6.83;;;-2.30;99.90;;;;;;4888526;29;20084;-84
2022/02/27 03:54:35;;;;;;;8.13;6.47;;;-2.30;99.90;;;;;;4892144;29;20057;-82
2022/02/27 03:57:02;;;;;;;7.63;4.87;;;-2.30;99.90;;;;;;4897224;29;20117;-83
2022/02/27 03:59:29;;;;;;;8.63;5.97;;;-2.30;99.90;;;;;;4894046;29;20135;-81
2022/02/27 04:01:56;;;;;;;7.67;5.93;;;-2.40;99.90;;;;;;4891138;29;20052;-82
2022/02/27 04:04:25;;;;;;;7.30;4.57;;;-2.40;99.90;;;;;;4897810;29;20063;-82
2022/02/27 04:06:52;;;;;;;5.57;5.03;;;-2.40;99.90;;;;;;4892614;29;20053;-83
2022/02/27 04:09:19;;;;;;;6.07;3.43;;;-2.40;99.90;;;;;;4881074;29;20053;-82
2022/02/27 04:11:46;;;;;;;4.87;4.47;;;-2.50;99.90;;;;;;4896753;29;20067;-82
2022/02/27 04:14:12;;;;;;;6.93;4.57;;;-2.50;99.90;;;;;;4891313;29;20063;-82
2022/02/27 04:16:39;;;;;;;8.00;7.13;;;-2.50;99.90;;;;;;4909623;29;20049;-80
2022/02/27 04:19:06;;;;;;;6.43;5.70;;;-2.50;99.90;;;;;;4905969;29;20112;-81
2022/02/27 04:21:35;;;;;;;7.07;3.97;;;-2.50;99.90;;;;;;4900820;29;20045;-81
2022/02/27 04:24:02;;;;;;;6.13;4.47;;;-2.50;99.90;;;;;;4911134;29;20112;-81
2022/02/27 04:26:30;;;;;;;4.10;3.73;;;-2.50;99.90;;;;;;4918252;29;20116;-81
2022/02/27 04:28:57;;;;;;;5.23;4.80;;;-2.50;99.90;;;;;;4914280;29;20045;-82
2022/02/27 04:31:23;;;;;;;4.00;3.77;;;-2.50;99.90;;;;;;4897950;29;20029;-80
2022/02/27 04:33:53;;;;;;;7.53;5.43;;;-2.40;99.90;;;;;;4901656;29;20049;-79
2022/02/27 04:36:20;;;;;;;6.37;3.60;;;-2.40;99.90;;;;;;4894308;29;20053;-83
2022/02/27 04:38:52;;;;;;;5.23;4.63;;;-2.40;99.90;;;;;;4895896;29;20114;-81
2022/02/27 04:41:19;;;;;;;10.37;5.83;;;-2.40;99.90;;;;;;4906388;29;20044;-82
2022/02/27 04:43:46;;;;;;;8.73;5.80;;;-2.40;99.90;;;;;;4901839;29;20056;-81
2022/02/27 04:46:16;;;;;;;6.77;5.50;;;-2.40;99.90;;;;;;4891600;29;20076;-81
2022/02/27 04:48:43;;;;;;;10.00;4.77;;;-2.40;99.90;;;;;;4901659;29;20435;-81
2022/02/27 04:51:10;;;;;;;12.03;4.60;;;-2.40;99.90;;;;;;4894986;29;20057;-81
2022/02/27 04:53:37;;;;;;;7.77;4.37;;;-2.40;99.90;;;;;;4902914;29;20052;-79
2022/02/27 04:56:08;;;;;;;3.90;3.60;;;-2.50;99.90;;;;;;4903384;29;20041;-79
2022/02/27 04:58:35;;;;;;;4.63;3.33;;;-2.40;99.90;;;;;;4904346;29;20053;-79
2022/02/27 05:01:02;;;;;;;8.47;5.27;;;-2.40;99.90;;;;;;4895950;29;20117;-80
2022/02/27 05:03:32;;;;;;;3.47;3.17;;;-2.30;99.90;;;;;;4895809;29;20053;-81
2022/02/27 05:05:58;;;;;;;6.57;3.93;;;-2.40;99.90;;;;;;4898406;29;20063;-81
2022/02/27 05:08:25;;;;;;;4.20;3.73;;;-2.30;99.90;;;;;;4910400;29;20105;-81
2022/02/27 05:10:54;;;;;;;5.37;4.83;;;-2.30;99.90;;;;;;4914881;29;20049;-79
2022/02/27 05:13:23;;;;;;;3.77;3.30;;;-2.40;99.90;;;;;;4919795;29;20060;-81
2022/02/27 05:15:50;;;;;;;5.30;5.00;;;-2.40;99.90;;;;;;4905745;29;20061;-81
2022/02/27 05:18:19;;;;;;;5.03;4.53;;;-2.40;99.90;;;;;;4904176;29;20057;-82
2022/02/27 05:20:46;;;;;;;8.77;4.43;;;-2.40;99.90;;;;;;4904293;29;20058;-81
2022/02/27 05:23:13;;;;;;;4.47;4.10;;;-2.30;99.90;;;;;;4907583;29;20045;-81
2022/02/27 05:25:42;;;;;;;6.03;4.37;;;-2.20;99.90;;;;;;4916073;29;20083;-80
2022/02/27 05:28:10;;;;;;;8.03;6.60;;;-2.20;99.90;;;;;;4899411;29;20052;-80
2022/02/27 05:30:39;;;;;;;4.70;3.77;;;-2.30;99.90;;;;;;4903286;29;20076;-80
2022/02/27 05:33:06;;;;;;;6.57;4.37;;;-2.40;99.90;;;;;;4902514;29;20074;-81
2022/02/27 05:35:33;;;;;;;6.53;3.80;;;-2.40;99.90;;;;;;4902410;29;20057;-80
2022/02/27 05:38:00;;;;;;;6.53;4.33;;;-2.50;99.90;;;;;;4901696;29;20077;-82
2022/02/27 05:40:30;;;;;;;5.03;4.53;;;-2.50;99.90;;;;;;4903073;29;20049;-82
2022/02/27 05:42:57;;;;;;;10.70;5.17;;;-2.50;99.90;;;;;;4902697;29;20040;-81
2022/02/27 05:45:24;;;;;;;4.53;3.17;;;-2.40;99.90;;;;;;4911084;29;20056;-81
2022/02/27 05:47:57;;;;;;;8.60;3.70;;;-2.40;99.90;;;;;;4906369;29;20079;-85
2022/02/27 05:50:24;;;;;;;5.83;3.73;;;-2.40;99.90;;;;;;4896725;29;20053;-81
2022/02/27 05:52:54;;;;;;;4.77;4.13;;;-2.40;99.90;;;;;;4902673;29;20049;-82
2022/02/27 05:55:21;;;;;;;5.63;3.07;;;-2.50;99.90;;;;;;4900031;29;20139;-82
2022/02/27 05:57:53;;;;;;;6.23;4.20;;;-2.40;99.90;;;;;;4915470;29;20063;-81
2022/02/27 06:00:27;;;;;;;;;;;-2.40;99.90;;;;;;4917127;29;20048;-82
2022/02/27 06:03:08;;;;;;;3.23;2.33;;;-2.40;99.90;;;;;;4914608;29;19931;-80
2022/02/27 06:05:43;;;;;;;5.72;3.80;;;-2.40;99.90;;;;;;4905094;29;20083;-84
2022/02/27 06:08:27;;;;;;;5.17;4.07;;;-2.30;99.90;;;;;;4905165;29;20049;-83
2022/02/27 06:11:05;;;;;;;16.60;8.00;;;-2.30;99.90;;;;;;4903423;29;20049;-83
2022/02/27 06:13:32;;;;;;;11.63;5.47;;;-2.20;99.90;;;;;;4912910;29;20066;-83
2022/02/27 06:16:02;;;;;;;8.07;7.27;;;-2.00;99.90;;;;;;4911896;29;20437;-84
2022/02/27 06:18:31;;;;;;;8.50;6.47;;;-2.00;99.90;;;;;;4906152;29;20048;-84
2022/02/27 06:20:58;;;;;;;6.10;4.30;;;-2.00;99.90;;;;;;4902153;29;20059;-83
2022/02/27 06:23:25;;;;;;;5.37;4.87;;;-2.00;99.90;;;;;;4901266;29;20125;-83
2022/02/27 06:25:53;;;;;;;7.27;6.43;;;-1.90;99.90;;;;;;4900858;29;20056;-83
2022/02/27 06:28:20;;;;;;;5.17;4.13;;;-1.80;99.90;;;;;;4901368;29;20056;-84
2022/02/27 06:30:47;;;;;;;5.60;5.03;;;-1.80;99.90;;;;;;4901688;29;20579;-84
2022/02/27 06:33:14;;;;;;;8.27;5.43;;;-1.60;99.90;;;;;;4901082;29;20052;-83
2022/02/27 06:35:42;;;;;;;54.63;36.73;;;-1.50;99.90;;;;;;4899042;29;20522;-81
2022/02/27 06:38:09;;;;;;;24.87;19.13;;;-1.40;99.90;;;;;;4901345;29;20584;-79
2022/02/27 06:40:36;;;;;;;12.43;8.83;;;-1.30;99.90;;;;;;4900716;29;20052;-86
2022/02/27 06:43:05;;;;;;;7.83;5.43;;;-1.10;99.90;;;;;;4896910;29;20049;-82
2022/02/27 06:45:36;;;;;;;11.43;6.00;;;-1.00;99.90;;;;;;4900770;29;20555;-81
2022/02/27 06:48:03;;;;;;;14.97;7.80;;;-1.00;99.90;;;;;;4902172;29;20056;-81
2022/02/27 06:50:30;;;;;;;8.53;7.00;;;-0.90;99.90;;;;;;4897675;29;20052;-84
2022/02/27 06:52:58;;;;;;;18.23;7.57;;;-0.80;99.90;;;;;;4903269;29;20380;-81
2022/02/27 06:55:25;;;;;;;19.40;10.67;;;-0.60;99.90;;;;;;4897697;29;20131;-80
2022/02/27 06:57:52;;;;;;;8.13;6.67;;;-0.50;99.90;;;;;;4898857;29;20056;-79
2022/02/27 07:00:20;;;;;;;12.67;8.23;;;-0.50;99.90;;;;;;4901871;29;20559;-80
2022/02/27 07:02:48;;;;;;;13.93;8.57;;;-0.30;99.90;;;;;;4888427;29;20117;-80
2022/02/27 07:05:24;;;;;;;10.97;6.47;;;-0.20;99.90;;;;;;4887078;29;20044;-79
2022/02/27 07:07:51;;;;;;;13.77;8.63;;;-0.20;99.90;;;;;;4869480;29;20130;-77
2022/02/27 07:10:19;;;;;;;13.63;8.60;;;-0.10;99.90;;;;;;4880022;29;20059;-77
2022/02/27 07:12:47;;;;;;;10.77;9.30;;;0.00;99.90;;;;;;4878205;29;20423;-78
2022/02/27 07:15:16;;;;;;;16.60;7.73;;;0.10;99.90;;;;;;4877748;29;20049;-79
2022/02/27 07:17:43;;;;;;;12.33;8.23;;;0.20;99.90;;;;;;4862585;29;20056;-82
2022/02/27 07:20:11;;;;;;;16.70;10.00;;;0.20;99.90;;;;;;4887052;29;20057;-79
2022/02/27 07:22:38;;;;;;;30.97;9.43;;;0.30;99.90;;;;;;4887295;29;20080;-77
2022/02/27 07:25:06;;;;;;;30.80;9.90;;;0.30;99.90;;;;;;4897684;29;20108;-76
2022/02/27 07:27:41;;;;;;;15.20;8.23;;;0.30;99.90;;;;;;4898902;29;20492;-77
2022/02/27 07:30:12;;;;;;;14.47;10.03;;;0.40;99.90;;;;;;4898726;29;20059;-78
2022/02/27 07:32:38;;;;;;;21.13;10.10;;;0.50;99.90;;;;;;4887506;29;20049;-76
2022/02/27 07:35:08;;;;;;;20.87;9.53;;;0.60;99.90;;;;;;4885175;29;20080;-76
2022/02/27 07:37:44;;;;;;;17.50;10.20;;;0.70;99.90;;;;;;4884396;29;20424;-77
2022/02/27 07:40:18;;;;;;;36.07;10.07;;;0.80;99.90;;;;;;4888214;29;20140;-89
2022/02/27 07:42:49;;;;;;;14.93;9.23;;;0.80;99.90;;;;;;4887130;29;20155;-82
2022/02/27 07:45:20;;;;;;;10.93;7.50;;;0.90;99.90;;;;;;4882096;29;20456;-80
2022/02/27 07:47:52;;;;;;;14.45;9.45;;;1.00;99.90;;;;;;4897499;29;20423;-80
2022/02/27 07:50:20;;;;;;;14.60;7.57;;;1.00;99.90;;;;;;4896576;29;20105;-83
2022/02/27 07:52:47;;;;;;;19.80;10.80;;;1.00;99.90;;;;;;4900736;29;20059;-83
2022/02/27 07:55:14;;;;;;;21.60;10.47;;;1.00;99.90;;;;;;4891045;29;20061;-86
2022/02/27 07:57:43;;;;;;;13.00;8.03;;;1.00;99.90;;;;;;4895570;29;20108;-81
2022/02/27 08:00:12;;;;;;;13.63;9.87;;;1.00;99.90;;;;;;4900943;29;20080;-83
2022/02/27 08:02:44;;;;;;;20.10;9.87;;;1.10;99.90;;;;;;4901028;29;20055;-81
2022/02/27 08:05:16;;;;;;;14.43;9.15;;;1.20;99.90;;;;;;4901269;29;20393;-80
2022/02/27 08:07:43;;;;;;;18.93;12.20;;;1.30;99.90;;;;;;4899347;29;20053;-81
2022/02/27 08:10:13;;;;;;;13.17;9.87;;;1.40;99.90;;;;;;4902250;29;20048;-81
2022/02/27 08:12:45;;;;;;;16.10;8.70;;;1.40;99.90;;;;;;4907334;29;20507;-80
2022/02/27 08:15:15;;;;;;;21.77;11.07;;;1.50;99.90;;;;;;4903607;29;20122;-82
2022/02/27 08:17:42;;;;;;;18.73;10.53;;;1.60;99.90;;;;;;4901090;29;20056;-82
2022/02/27 08:20:15;;;;;;;16.60;9.40;;;1.60;99.90;;;;;;4901850;29;20063;-81
2022/02/27 08:22:42;;;;;;;15.17;10.97;;;1.60;99.90;;;;;;4893896;29;20496;-82
2022/02/27 08:25:14;;;;;;;15.60;11.00;;;1.70;99.90;;;;;;4899652;29;20044;-80
2022/02/27 08:27:41;;;;;;;23.50;10.70;;;1.70;99.90;;;;;;4899057;29;20519;-82
2022/02/27 08:30:13;;;;;;;12.83;7.90;;;1.70;99.90;;;;;;4898019;29;20460;-81
2022/02/27 08:32:40;;;;;;;17.60;9.80;;;1.60;99.90;;;;;;4900197;29;20408;-82
2022/02/27 08:35:10;;;;;;;11.33;7.73;;;1.70;99.90;;;;;;4888591;29;20053;-82
2022/02/27 08:37:37;;;;;;;17.20;10.57;;;1.70;99.90;;;;;;4903373;29;20053;-82
2022/02/27 08:40:05;;;;;;;18.53;9.43;;;1.70;99.90;;;;;;4916653;29;20064;-81
2022/02/27 08:42:32;;;;;;;16.33;9.27;;;1.80;99.90;;;;;;4918295;29;20047;-81
2022/02/27 08:44:59;;;;;;;24.57;10.60;;;1.90;99.90;;;;;;4905685;29;20053;-81
2022/02/27 08:47:28;;;;;;;14.97;9.53;;;1.80;99.90;;;;;;4914441;29;20058;-80
2022/02/27 08:49:55;;;;;;;15.07;9.80;;;1.80;99.90;;;;;;4923589;29;20072;-82
2022/02/27 08:52:22;;;;;;;14.10;9.10;;;1.90;99.90;;;;;;4910396;29;20064;-83
2022/02/27 08:54:51;;;;;;;19.47;9.87;;;1.90;99.90;;;;;;4918745;29;20068;-83
2022/02/27 08:57:18;;;;;;;249.17;141.67;;;1.90;99.90;;;;;;4921862;29;20049;-85
2022/02/27 08:59:45;;;;;;;81.47;44.10;;;2.00;99.90;;;;;;4922505;29;20072;-84
2022/02/27 09:02:14;;;;;;;41.93;21.27;;;2.00;99.90;;;;;;4922178;29;20085;-84
2022/02/27 09:04:42;;;;;;;20.63;10.80;;;2.30;99.90;;;;;;4922967;29;20056;-86
2022/02/27 09:07:18;;;;;;;22.53;10.93;;;2.40;99.90;;;;;;4920409;29;20060;-92
2022/02/27 09:09:47;;;;;;;18.40;10.10;;;2.60;99.90;;;;;;4922568;29;20048;-92
2022/02/27 09:12:17;;;;;;;20.00;10.93;;;2.40;99.90;;;;;;4923707;29;20055;-89
2022/02/27 09:14:45;;;;;;;19.50;10.60;;;2.60;99.90;;;;;;4922261;29;20075;-88
2022/02/27 09:17:13;;;;;;;21.03;10.50;;;2.60;99.90;;;;;;4923978;29;20057;-86
2022/02/27 09:19:42;;;;;;;17.77;10.70;;;2.80;99.90;;;;;;4922763;29;20056;-89
2022/02/27 09:22:09;;;;;;;15.67;11.50;;;2.80;99.90;;;;;;4923137;29;20135;-88
2022/02/27 09:24:38;;;;;;;16.60;8.57;;;2.70;99.90;;;;;;4922105;29;20053;-87
2022/02/27 09:27:07;;;;;;;15.07;8.53;;;2.80;99.90;;;;;;4923262;29;20428;-88
2022/02/27 09:29:34;;;;;;;14.93;7.70;;;2.90;99.90;;;;;;4923002;29;20053;-88
2022/02/27 09:32:05;;;;;;;11.57;8.00;;;3.00;99.90;;;;;;4924275;29;20036;-89
2022/02/27 09:34:32;;;;;;;9.70;6.70;;;3.00;99.90;;;;;;4923059;29;20044;-86
2022/02/27 09:37:03;;;;;;;14.33;7.57;;;3.00;99.90;;;;;;4924931;29;20037;-90
2022/02/27 09:39:37;;;;;;;17.90;7.13;;;3.00;99.90;;;;;;4923685;29;20088;-91
2022/02/27 09:42:17;;;;;;;13.70;6.50;;;3.00;99.90;;;;;;4924961;29;20061;-89
2022/02/27 09:44:45;;;;;;;13.93;7.33;;;3.10;99.90;;;;;;4923469;29;20049;-87
2022/02/27 09:47:14;;;;;;;14.80;7.83;;;3.10;99.90;;;;;;4922282;29;20064;-86
2022/02/27 09:49:45;;;;;;;10.00;7.23;;;2.90;99.90;;;;;;4922513;29;20139;-88
2022/02/27 09:55:00;;;;;;;13.83;7.67;;;3.00;99.90;;;;;;4963800;23;19922;-87
2022/02/27 09:57:28;;;;;;;14.77;7.90;;;3.10;99.90;;;;;;4932049;29;20087;-91
2022/02/27 10:03:04;;;;;;;16.60;8.53;;;3.40;99.90;;;;;;4955937;28;20055;-87
2022/02/27 10:05:31;;;;;;;9.60;7.57;;;3.50;99.90;;;;;;4951576;29;20059;-86
2022/02/27 10:07:58;;;;;;;14.80;9.97;;;3.60;99.90;;;;;;4942995;29;20051;-87
2022/02/27 10:10:29;;;;;;;20.63;8.23;;;3.60;99.90;;;;;;4940181;29;20052;-88
2022/02/27 10:12:56;;;;;;;11.57;7.68;;;3.60;99.90;;;;;;4941224;29;20052;-84
2022/02/27 10:15:26;;;;;;;18.77;10.27;;;3.60;99.90;;;;;;4940616;29;20063;-86
2022/02/27 10:17:53;;;;;;;14.87;8.27;;;3.60;99.90;;;;;;4937196;29;20483;-86
2022/02/27 10:20:29;;;;;;;16.03;7.97;;;3.60;99.90;;;;;;4952135;29;20142;-88
2022/02/27 10:22:56;;;;;;;68.43;32.43;;;3.70;99.90;;;;;;4959748;29;20059;-88
2022/02/27 10:25:25;;;;;;;160.87;87.43;;;3.80;99.90;;;;;;4959241;29;20080;-86
2022/02/27 10:27:56;;;;;;;69.07;35.10;;;3.90;99.90;;;;;;4956881;29;20060;-85
2022/02/27 10:30:26;;;;;;;17.47;10.20;;;4.00;99.90;;;;;;4956452;29;20055;-89
2022/02/27 10:33:01;;;;;;;29.90;12.37;;;4.10;99.90;;;;;;4944396;29;20059;-87
2022/02/27 10:35:36;;;;;;;20.10;11.17;;;4.10;99.90;;;;;;4940398;29;20052;-89
2022/02/27 10:38:05;;;;;;;16.27;9.63;;;4.20;99.90;;;;;;4941416;29;20054;-89
2022/02/27 10:40:45;;;;;;;22.60;11.43;;;4.20;99.90;;;;;;4947890;29;20124;-89
2022/02/27 10:43:23;;;;;;;20.00;10.77;;;4.10;99.90;;;;;;4946073;29;20047;-88
2022/02/27 10:48:52;;;;;;;17.37;10.40;;;4.10;99.90;;;;;;4946600;29;20047;-89
2022/02/27 10:51:19;;;;;;;22.07;11.60;;;4.10;99.90;;;;;;4949872;29;20520;-87
2022/02/27 10:53:53;;;;;;;21.80;10.93;;;4.10;99.90;;;;;;4947223;29;20062;-86
2022/02/27 10:56:22;;;;;;;24.73;12.40;;;4.30;99.90;;;;;;4944320;29;20475;-90
2022/02/27 10:58:51;;;;;;;24.20;12.23;;;4.40;99.90;;;;;;4940083;29;20078;-88
2022/02/27 11:01:19;;;;;;;16.87;10.67;;;4.30;99.90;;;;;;4938642;29;20487;-87
2022/02/27 11:03:48;;;;;;;21.83;11.37;;;4.40;99.90;;;;;;4941911;29;20055;-86
2022/02/27 11:06:16;;;;;;;23.47;12.60;;;4.30;99.90;;;;;;4941178;29;20062;-86
2022/02/27 11:08:46;;;;;;;25.27;12.17;;;4.40;99.90;;;;;;4938244;29;20058;-88
2022/02/27 11:11:15;;;;;;;19.73;10.90;;;4.30;99.90;;;;;;4934509;29;20059;-88
2022/02/27 11:13:47;;;;;;;19.27;11.33;;;4.30;99.90;;;;;;4927476;29;20056;-87
2022/02/27 11:16:18;;;;;;;17.23;9.55;;;4.20;99.90;;;;;;4937049;29;20075;-88
2022/02/27 11:18:46;;;;;;;;;;;4.20;99.90;;;;;;4933643;29;20089;-88
2022/02/27 11:21:21;;;;;;;19.67;10.67;;;4.30;99.90;;;;;;4933823;29;19923;-89
2022/02/27 11:23:50;;;;;;;20.23;10.83;;;4.30;99.90;;;;;;4953631;29;20067;-87
2022/02/27 11:26:23;;;;;;;27.17;10.33;;;4.40;99.90;;;;;;4953608;29;20048;-89
2022/02/27 11:28:58;;;;;;;18.70;10.80;;;4.20;99.90;;;;;;4948802;29;20052;-88
2022/02/27 11:31:28;;;;;;;26.07;11.60;;;4.10;99.90;;;;;;4947724;29;20051;-86
2022/02/27 11:34:12;;;;;;;24.67;12.37;;;3.90;99.90;;;;;;4945875;29;20594;-86
2022/02/27 11:36:39;;;;;;;28.03;14.17;;;3.80;99.90;;;;;;4942964;29;20048;-87
2022/02/27 11:44:38;;;;;;;34.23;16.40;;;4.20;99.90;;;;;;4938850;29;20063;-87
2022/02/27 11:47:12;;;;;;;33.57;15.07;;;4.30;99.90;;;;;;4928908;29;20052;-87
2022/02/27 11:49:44;;;;;;;29.70;16.43;;;4.20;99.90;;;;;;4941462;29;20050;-88
2022/02/27 11:52:13;;;;;;;27.77;13.63;;;4.20;99.90;;;;;;4951386;29;20040;-90
2022/02/27 11:54:47;;;;;;;26.33;14.23;;;4.20;99.90;;;;;;4937937;29;20063;-87
2022/02/27 11:57:19;;;;;;;24.67;13.30;;;4.10;99.90;;;;;;4939173;29;20055;-85
2022/02/27 12:00:01;;;;;;;21.00;12.83;;;4.10;99.90;;;;;;4941088;29;20051;-88
2022/02/27 12:02:53;;;;;;;27.07;12.47;;;4.00;99.90;;;;;;4939461;29;20047;-89
2022/02/27 12:05:44;;;;;;;27.30;13.15;;;3.90;99.90;;;;;;4947519;29;20082;-89
2022/02/27 12:13:34;;;;;;;22.87;13.57;;;3.80;99.90;;;;;;4947041;29;19923;-90
2022/02/27 12:16:09;;;;;;;21.73;12.73;;;3.60;99.90;;;;;;4928397;29;20044;-89
2022/02/27 12:18:54;;;;;;;26.50;13.20;;;3.50;99.90;;;;;;4941552;29;20068;-90
2022/02/27 12:21:35;;;;;;;25.93;13.47;;;3.60;99.90;;;;;;4942553;29;20051;-88
2022/02/27 12:24:13;;;;;;;27.40;14.95;;;3.70;99.90;;;;;;4944121;29;20048;-88
2022/02/27 12:26:47;;;;;;;29.37;14.43;;;3.80;99.90;;;;;;4943780;29;20499;-87
2022/02/27 12:32:22;;;;;;;23.97;12.87;;;3.90;99.90;;;;;;4944337;29;20044;-89
2022/02/27 12:34:56;;;;;;;21.43;11.30;;;3.90;99.90;;;;;;4930618;29;20048;-88
2022/02/27 12:37:28;;;;;;;58.17;36.27;;;3.90;99.90;;;;;;4945791;29;20052;-88
2022/02/27 12:40:03;;;;;;;57.97;32.53;;;4.00;99.90;;;;;;4946660;29;20051;-87
2022/02/27 12:46:01;;;;;;;23.83;16.48;;;3.90;99.90;;;;;;4925551;29;20138;-90
2022/02/27 12:50:16;;;;;;;29.37;13.20;;;3.90;99.90;;;;;;4945013;29;20110;-88
2022/02/27 12:51:31;;;;;;;30.00;15.33;;;3.90;99.90;;;;;;4933266;29;20088;-90
2022/02/27 12:57:14;;;;;;;28.93;14.87;;;3.80;99.90;;;;;;4943108;29;20056;-89
2022/02/27 12:59:57;;;;;;;24.80;15.70;;;3.70;99.90;;;;;;4945493;29;20054;-91
2022/02/27 13:02:39;;;;;;;26.57;14.67;;;3.60;99.90;;;;;;4939768;29;20079;-90
2022/02/27 13:08:08;;;;;;;22.77;12.27;;;3.50;99.90;;;;;;4942482;29;20095;-87
2022/02/27 13:10:50;;;;;;;22.53;11.93;;;3.50;99.90;;;;;;4954997;29;20054;-85
2022/02/27 13:13:17;;;;;;;;;;;3.60;99.90;;;;;;4955085;29;20047;-84
2022/02/27 13:18:29;;;;;;;24.57;13.67;;;3.70;99.90;;;;;;4972650;28;20047;-91
2022/02/27 13:21:02;;;;;;;26.15;13.02;;;3.70;99.90;;;;;;4953128;29;20124;-85
2022/02/27 13:23:39;;;;;;;21.97;12.03;;;3.70;99.90;;;;;;4946722;28;20060;-91
2022/02/27 13:26:13;;;;;;;20.80;11.67;;;3.70;99.90;;;;;;4956133;28;20054;-90
2022/02/27 13:28:54;;;;;;;25.20;13.47;;;3.70;99.90;;;;;;4977330;29;20075;-90